Time;durP1;ratioP1;P1;durP2;ratioP2;P2;SDS_P1;SDS_P2;PMS_P1;PMS_P2;Temp;Humidity;BMP_temperature;BMP_pressure;BME280_temperature;BME280_humidity;BME280_pressure;Samples;Min_cycle;Max_cycle;Signal;HPM_P1;HPM_P2
2023/08/29 00:01:11;;;;;;;865.33;804.83;;;13.50;99.90;;;;;;5052902;28;21018;-68
2023/08/29 00:03:38;;;;;;;883.13;821.23;;;13.60;99.90;;;;;;5053231;28;20467;-68
2023/08/29 00:06:06;;;;;;;895.50;832.67;;;13.60;99.90;;;;;;5052670;28;21189;-68
2023/08/29 00:08:34;;;;;;;893.43;831.03;;;13.60;99.90;;;;;;5053134;28;20531;-68
2023/08/29 00:11:02;;;;;;;910.57;846.40;;;13.60;99.90;;;;;;5053110;28;20447;-68
2023/08/29 00:13:29;;;;;;;905.77;841.90;;;13.60;99.90;;;;;;5052846;28;20444;-68
2023/08/29 00:15:56;;;;;;;911.23;846.80;;;13.60;99.90;;;;;;5052440;28;20567;-68
2023/08/29 00:18:23;;;;;;;920.30;854.33;;;13.50;99.90;;;;;;5052995;28;20451;-68
2023/08/29 00:20:50;;;;;;;931.87;864.27;;;13.50;99.90;;;;;;5052928;28;20535;-69
2023/08/29 00:23:17;;;;;;;929.90;858.60;;;13.40;99.90;;;;;;5052739;28;21038;-68
2023/08/29 00:25:46;;;;;;;936.33;863.47;;;13.40;99.90;;;;;;5052375;28;20527;-68
2023/08/29 00:28:13;;;;;;;946.97;872.70;;;13.40;99.90;;;;;;5052540;28;20453;-68
2023/08/29 00:30:41;;;;;;;942.30;867.40;;;13.40;99.90;;;;;;5052786;28;20550;-68
2023/08/29 00:33:09;;;;;;;936.03;861.27;;;13.40;99.90;;;;;;5052378;28;20447;-68
2023/08/29 00:35:36;;;;;;;949.53;873.33;;;13.50;99.90;;;;;;5051834;28;20574;-68
2023/08/29 00:38:04;;;;;;;944.90;869.20;;;13.40;99.90;;;;;;5052367;28;20935;-68
2023/08/29 00:40:31;;;;;;;939.77;864.60;;;13.50;99.90;;;;;;5052479;28;20448;-69
2023/08/29 00:43:00;;;;;;;937.13;861.10;;;13.40;99.90;;;;;;5052153;28;20457;-68
2023/08/29 00:45:29;;;;;;;942.17;866.23;;;13.50;99.90;;;;;;5052108;28;20452;-68
2023/08/29 00:47:56;;;;;;;944.90;869.70;;;13.50;99.90;;;;;;5052285;28;20452;-68
2023/08/29 00:50:23;;;;;;;938.87;864.23;;;13.50;99.90;;;;;;5052158;28;20444;-68
2023/08/29 00:52:54;;;;;;;940.43;867.20;;;13.60;99.90;;;;;;5052157;28;20486;-68
2023/08/29 00:55:21;;;;;;;939.70;866.77;;;13.60;99.90;;;;;;5051492;28;20533;-68
2023/08/29 00:57:50;;;;;;;933.43;861.13;;;13.70;99.90;;;;;;5052262;28;20569;-68
2023/08/29 01:00:19;;;;;;;931.80;860.10;;;13.70;99.90;;;;;;5052130;28;20456;-68
2023/08/29 01:02:45;;;;;;;931.67;860.27;;;13.70;99.90;;;;;;5051952;28;20538;-69
2023/08/29 01:05:12;;;;;;;927.17;855.27;;;13.80;99.90;;;;;;5051581;28;20535;-68
2023/08/29 01:07:39;;;;;;;930.33;859.80;;;13.80;99.90;;;;;;5051856;28;20452;-68
2023/08/29 01:10:07;;;;;;;930.53;859.70;;;13.90;99.90;;;;;;5051684;28;20887;-68
2023/08/29 01:12:43;;;;;;;931.57;861.40;;;13.90;99.90;;;;;;5051845;28;20456;-68
2023/08/29 01:15:17;;;;;;;929.07;859.07;;;13.90;99.90;;;;;;5051543;28;20481;-69
2023/08/29 01:17:50;;;;;;;931.43;861.93;;;13.90;99.90;;;;;;5051843;28;20805;-69
2023/08/29 01:20:18;;;;;;;925.47;856.40;;;13.90;99.90;;;;;;5051501;28;20447;-68
2023/08/29 01:22:58;;;;;;;921.07;852.33;;;13.90;99.90;;;;;;5051663;28;20823;-68
2023/08/29 01:25:31;;;;;;;917.13;848.63;;;13.90;99.90;;;;;;5051501;28;20448;-68
2023/08/29 01:28:01;;;;;;;922.73;855.27;;;13.90;99.90;;;;;;5051752;28;20454;-68
2023/08/29 01:30:29;;;;;;;920.03;852.23;;;13.90;99.90;;;;;;5051634;28;20878;-69
2023/08/29 01:32:58;;;;;;;917.17;849.23;;;13.90;99.90;;;;;;5051118;28;20451;-68
2023/08/29 01:35:25;;;;;;;912.40;845.20;;;13.90;99.90;;;;;;5051039;28;20816;-68
2023/08/29 01:37:52;;;;;;;912.60;845.30;;;14.00;99.90;;;;;;5051181;28;20451;-69
2023/08/29 01:40:19;;;;;;;912.53;844.63;;;14.00;99.90;;;;;;5051395;28;20543;-68
2023/08/29 01:42:46;;;;;;;910.07;842.47;;;14.00;99.90;;;;;;5051297;28;20447;-68
2023/08/29 01:45:14;;;;;;;922.67;854.67;;;14.00;99.90;;;;;;5051009;28;20486;-68
2023/08/29 01:47:42;;;;;;;914.27;845.97;;;14.00;99.90;;;;;;5051162;28;20461;-69
2023/08/29 01:50:12;;;;;;;910.20;842.10;;;14.00;99.90;;;;;;5050828;28;20451;-68
2023/08/29 01:52:39;;;;;;;907.50;840.00;;;14.00;99.90;;;;;;5051260;28;20476;-68
2023/08/29 01:55:06;;;;;;;912.30;846.00;;;14.00;99.90;;;;;;5050738;28;20530;-68
2023/08/29 01:57:35;;;;;;;915.40;849.20;;;14.00;99.90;;;;;;5051102;28;20889;-69
2023/08/29 02:00:04;;;;;;;911.70;845.17;;;14.00;99.90;;;;;;5050899;28;20479;-69
2023/08/29 02:02:32;;;;;;;896.93;831.73;;;14.00;99.90;;;;;;5050718;28;20447;-69
2023/08/29 02:04:59;;;;;;;905.20;840.73;;;14.00;99.90;;;;;;5050687;28;20498;-69
2023/08/29 02:07:26;;;;;;;907.47;844.37;;;14.00;99.90;;;;;;5051100;28;20479;-69
2023/08/29 02:09:53;;;;;;;905.27;841.90;;;13.90;99.90;;;;;;5051100;28;20482;-68
2023/08/29 02:12:20;;;;;;;892.37;829.20;;;13.90;99.90;;;;;;5050691;28;20491;-69
2023/08/29 02:14:48;;;;;;;897.07;833.70;;;13.90;99.90;;;;;;5050546;28;20452;-68
2023/08/29 02:17:14;;;;;;;898.43;834.57;;;14.00;99.90;;;;;;5051078;28;20819;-68
2023/08/29 02:19:43;;;;;;;896.10;832.87;;;13.90;99.90;;;;;;5050302;28;20451;-69
2023/08/29 02:22:09;;;;;;;894.73;830.47;;;13.90;99.90;;;;;;5050846;28;20451;-68
2023/08/29 02:24:36;;;;;;;894.07;829.33;;;13.90;99.90;;;;;;5050521;28;20534;-68
2023/08/29 02:27:04;;;;;;;902.47;838.60;;;13.90;99.90;;;;;;5050889;28;20646;-68
2023/08/29 02:29:31;;;;;;;899.13;835.50;;;13.90;99.90;;;;;;5050667;28;20455;-69
2023/08/29 02:31:58;;;;;;;894.43;831.20;;;13.90;99.90;;;;;;5050654;28;20452;-68
2023/08/29 02:34:26;;;;;;;906.90;841.67;;;13.80;99.90;;;;;;5050489;28;20655;-69
2023/08/29 02:36:54;;;;;;;913.23;845.63;;;13.90;99.90;;;;;;5050648;28;20515;-68
2023/08/29 02:39:21;;;;;;;917.53;849.57;;;13.80;99.90;;;;;;5050723;28;20463;-68
2023/08/29 02:41:49;;;;;;;917.30;847.83;;;13.80;99.90;;;;;;5050436;28;21021;-69
2023/08/29 02:44:15;;;;;;;908.33;838.83;;;13.80;99.90;;;;;;5050167;28;20510;-69
2023/08/29 02:46:42;;;;;;;912.23;842.23;;;13.80;99.90;;;;;;5050805;28;20868;-68
2023/08/29 02:49:09;;;;;;;911.53;839.83;;;13.70;99.90;;;;;;5050657;28;20543;-69
2023/08/29 02:51:36;;;;;;;908.80;837.17;;;13.70;99.90;;;;;;5050553;28;20487;-69
2023/08/29 02:54:04;;;;;;;914.90;842.63;;;13.70;99.90;;;;;;5050377;28;20875;-68
2023/08/29 02:56:31;;;;;;;923.83;849.13;;;13.60;99.90;;;;;;5050303;28;20982;-69
2023/08/29 02:58:58;;;;;;;923.83;848.17;;;13.60;99.90;;;;;;5050302;28;20454;-68
2023/08/29 03:01:25;;;;;;;935.37;858.47;;;13.60;99.90;;;;;;5050599;28;20456;-69
2023/08/29 03:03:52;;;;;;;934.97;858.43;;;13.60;99.90;;;;;;5050464;28;20542;-69
2023/08/29 03:06:19;;;;;;;936.00;859.03;;;13.50;99.90;;;;;;5050183;28;20470;-69
2023/08/29 03:08:46;;;;;;;940.97;863.00;;;13.50;99.90;;;;;;5050181;28;20509;-70
2023/08/29 03:11:14;;;;;;;936.00;857.30;;;13.50;99.90;;;;;;5050256;28;20452;-69
2023/08/29 03:13:41;;;;;;;943.80;863.60;;;13.50;99.90;;;;;;5050097;28;20535;-69
2023/08/29 03:16:15;;;;;;;941.33;860.30;;;13.40;99.90;;;;;;5050014;28;20479;-69
2023/08/29 03:18:42;;;;;;;949.87;868.43;;;13.40;99.90;;;;;;5050285;28;20457;-69
2023/08/29 03:21:09;;;;;;;953.80;871.30;;;13.40;99.90;;;;;;5050375;28;20452;-69
2023/08/29 03:23:36;;;;;;;944.20;861.20;;;13.50;99.90;;;;;;5050093;28;20448;-69
2023/08/29 03:26:05;;;;;;;940.93;858.53;;;13.50;99.90;;;;;;5049744;28;20539;-69
2023/08/29 03:28:33;;;;;;;949.53;866.90;;;13.50;99.90;;;;;;5050375;28;20455;-69
2023/08/29 03:31:09;;;;;;;935.87;854.47;;;13.50;99.90;;;;;;5051008;28;20530;-69
2023/08/29 03:33:36;;;;;;;953.40;871.13;;;13.60;99.90;;;;;;5053689;28;20447;-69
2023/08/29 03:36:03;;;;;;;943.90;865.27;;;13.60;99.90;;;;;;5053182;28;21018;-69
2023/08/29 03:38:30;;;;;;;935.60;857.50;;;13.60;99.90;;;;;;5053526;28;20809;-69
2023/08/29 03:40:58;;;;;;;942.43;863.30;;;13.60;99.90;;;;;;5053774;28;20455;-69
2023/08/29 03:43:28;;;;;;;940.03;861.27;;;13.60;99.90;;;;;;5053400;28;20484;-69
2023/08/29 03:46:00;;;;;;;944.50;865.00;;;13.60;99.90;;;;;;5052973;28;20447;-69
2023/08/29 03:48:27;;;;;;;951.20;870.90;;;13.60;99.90;;;;;;5053454;28;20538;-69
2023/08/29 03:50:54;;;;;;;950.97;868.97;;;13.50;99.90;;;;;;5053197;28;20452;-69
2023/08/29 03:53:21;;;;;;;943.40;860.53;;;13.50;99.90;;;;;;5053467;28;20496;-69
2023/08/29 03:55:48;;;;;;;954.10;870.90;;;13.50;99.90;;;;;;5053141;28;20826;-69
2023/08/29 03:58:15;;;;;;;947.90;865.10;;;13.50;99.90;;;;;;5053257;28;20447;-69
2023/08/29 04:00:42;;;;;;;948.73;865.33;;;13.40;99.90;;;;;;5053897;28;20448;-69
2023/08/29 04:03:10;;;;;;;951.57;867.47;;;13.40;99.90;;;;;;5053392;28;20454;-69
2023/08/29 04:05:38;;;;;;;958.23;874.57;;;13.40;99.90;;;;;;5052751;28;20536;-69
2023/08/29 04:08:06;;;;;;;944.20;859.77;;;13.40;99.90;;;;;;5052912;28;20554;-69
2023/08/29 04:10:38;;;;;;;949.73;865.10;;;13.40;99.90;;;;;;5053393;28;20454;-69
2023/08/29 04:13:06;;;;;;;954.33;868.80;;;13.40;99.90;;;;;;5053276;28;20447;-69
2023/08/29 04:15:33;;;;;;;955.30;869.90;;;13.30;99.90;;;;;;5052803;28;20452;-69
2023/08/29 04:18:00;;;;;;;944.73;859.07;;;13.30;99.90;;;;;;5053158;28;20566;-69
2023/08/29 04:20:29;;;;;;;960.10;874.93;;;13.30;99.90;;;;;;5053499;28;20506;-69
2023/08/29 04:22:58;;;;;;;943.67;858.20;;;13.30;99.90;;;;;;5053359;28;20455;-69
2023/08/29 04:25:26;;;;;;;936.83;851.53;;;13.30;99.90;;;;;;5052970;28;20444;-69
2023/08/29 04:27:53;;;;;;;929.03;842.90;;;13.20;99.90;;;;;;5053612;28;20443;-69
2023/08/29 04:30:20;;;;;;;948.40;862.23;;;13.20;99.90;;;;;;5053032;28;20873;-69
2023/08/29 04:32:48;;;;;;;947.93;861.27;;;13.20;99.90;;;;;;5053065;28;20592;-69
2023/08/29 04:35:15;;;;;;;941.27;855.30;;;13.30;99.90;;;;;;5052434;28;20479;-69
2023/08/29 04:37:46;;;;;;;932.23;845.93;;;13.30;99.90;;;;;;5052562;28;20562;-69
2023/08/29 04:40:14;;;;;;;934.77;848.17;;;13.30;99.90;;;;;;5052494;28;20455;-69
2023/08/29 04:42:41;;;;;;;939.10;853.20;;;13.30;99.90;;;;;;5051992;28;21032;-69
2023/08/29 04:45:09;;;;;;;939.97;853.80;;;13.20;99.90;;;;;;5052013;28;21066;-69
2023/08/29 04:47:36;;;;;;;927.43;841.07;;;13.30;99.90;;;;;;5052258;28;21235;-69
2023/08/29 04:50:04;;;;;;;931.30;845.90;;;13.30;99.90;;;;;;5052425;28;20480;-69
2023/08/29 04:52:31;;;;;;;931.93;846.40;;;13.30;99.90;;;;;;5052426;28;20450;-69
2023/08/29 04:54:59;;;;;;;933.23;847.57;;;13.20;99.90;;;;;;5052496;28;20455;-69
2023/08/29 04:57:26;;;;;;;937.13;850.17;;;13.20;99.90;;;;;;5052017;28;20475;-69
2023/08/29 04:59:53;;;;;;;935.40;848.70;;;13.20;99.90;;;;;;5052128;28;20571;-69
2023/08/29 05:02:20;;;;;;;936.67;848.67;;;13.20;99.90;;;;;;5052124;28;20874;-69
2023/08/29 05:04:47;;;;;;;926.07;838.17;;;13.20;99.90;;;;;;5051868;28;20447;-69
2023/08/29 05:07:14;;;;;;;930.10;841.27;;;13.20;99.90;;;;;;5051635;28;20454;-69
2023/08/29 05:09:41;;;;;;;948.27;858.83;;;13.20;99.90;;;;;;5052430;28;20491;-70
2023/08/29 05:12:10;;;;;;;928.70;839.77;;;13.30;99.90;;;;;;5051344;28;20538;-69
2023/08/29 05:14:38;;;;;;;934.50;845.70;;;13.30;99.90;;;;;;5051882;28;20451;-69
2023/08/29 05:17:05;;;;;;;938.43;848.97;;;13.40;99.90;;;;;;5051786;28;20502;-69
2023/08/29 05:19:32;;;;;;;938.70;849.90;;;13.40;99.90;;;;;;5051654;28;20448;-69
2023/08/29 05:21:59;;;;;;;944.33;855.23;;;13.50;99.90;;;;;;5051575;28;20547;-69
2023/08/29 05:24:26;;;;;;;938.53;850.13;;;13.50;99.90;;;;;;5051362;28;20479;-69
2023/08/29 05:26:53;;;;;;;925.20;837.73;;;13.60;99.90;;;;;;5051435;28;20447;-69
2023/08/29 05:29:21;;;;;;;925.43;838.83;;;13.60;99.90;;;;;;5051781;28;20539;-69
2023/08/29 05:31:48;;;;;;;922.93;835.73;;;13.60;99.90;;;;;;5051437;28;20455;-69
2023/08/29 05:34:15;;;;;;;918.23;831.03;;;13.70;99.90;;;;;;5051178;28;20574;-69
2023/08/29 05:36:42;;;;;;;918.07;831.33;;;13.70;99.90;;;;;;5051397;28;20479;-69
2023/08/29 05:39:09;;;;;;;913.63;828.27;;;13.80;99.90;;;;;;5051358;28;20455;-69
2023/08/29 05:41:36;;;;;;;921.80;835.67;;;13.80;99.90;;;;;;5051123;28;20541;-69
2023/08/29 05:44:03;;;;;;;916.93;831.80;;;13.90;99.90;;;;;;5051079;28;20455;-69
2023/08/29 05:46:32;;;;;;;923.57;838.47;;;13.90;99.90;;;;;;5051283;28;20448;-69
2023/08/29 05:48:59;;;;;;;922.10;838.83;;;13.90;99.90;;;;;;5051427;28;20566;-69
2023/08/29 05:51:26;;;;;;;933.53;850.97;;;14.00;99.90;;;;;;5050944;28;20452;-69
2023/08/29 05:53:54;;;;;;;932.57;850.37;;;14.00;99.90;;;;;;5050206;28;20483;-69
2023/08/29 05:56:21;;;;;;;927.33;845.70;;;14.10;99.90;;;;;;5050700;28;20458;-69
2023/08/29 05:58:48;;;;;;;920.40;840.40;;;14.10;99.90;;;;;;5051152;28;20447;-69
2023/08/29 06:01:15;;;;;;;924.63;845.47;;;14.20;99.90;;;;;;5051116;28;20475;-69
2023/08/29 06:03:43;;;;;;;923.37;846.27;;;14.20;99.90;;;;;;5051053;28;20455;-69
2023/08/29 06:06:10;;;;;;;930.37;852.77;;;14.20;99.90;;;;;;5050350;28;20451;-69
2023/08/29 06:08:40;;;;;;;925.90;849.00;;;14.30;99.90;;;;;;5050860;28;20447;-69
2023/08/29 06:11:07;;;;;;;927.97;852.77;;;14.30;99.90;;;;;;5051356;28;20475;-69
2023/08/29 06:13:34;;;;;;;927.83;853.60;;;14.40;99.90;;;;;;5050653;28;20456;-69
2023/08/29 06:16:00;;;;;;;922.67;849.40;;;14.40;99.90;;;;;;5050907;28;20535;-69
2023/08/29 06:18:28;;;;;;;917.80;848.13;;;14.50;99.90;;;;;;5047855;28;20542;-69
2023/08/29 06:20:56;;;;;;;903.90;836.20;;;14.50;99.90;;;;;;5049796;28;20497;-69
2023/08/29 06:23:24;;;;;;;884.57;820.27;;;14.60;99.90;;;;;;5050309;28;20458;-69
2023/08/29 06:25:52;;;;;;;872.67;811.40;;;14.70;99.90;;;;;;5049858;28;20458;-68
2023/08/29 06:28:19;;;;;;;847.00;789.83;;;14.70;99.90;;;;;;5050018;28;20470;-69
2023/08/29 06:30:45;;;;;;;837.43;780.87;;;14.70;99.90;;;;;;5049901;28;20444;-69
2023/08/29 06:33:13;;;;;;;825.10;771.30;;;14.80;99.90;;;;;;5049951;28;20842;-69
2023/08/29 06:35:39;;;;;;;796.43;745.33;;;14.90;99.90;;;;;;5049350;28;20538;-69
2023/08/29 06:38:08;;;;;;;713.53;670.50;;;15.00;99.90;;;;;;5050013;28;20586;-69
2023/08/29 06:40:35;;;;;;;714.47;671.50;;;15.00;99.90;;;;;;5050327;28;20452;-69
2023/08/29 06:43:02;;;;;;;671.43;632.60;;;15.10;99.90;;;;;;5049911;28;20459;-69
2023/08/29 06:45:29;;;;;;;560.07;529.87;;;15.20;99.90;;;;;;5049906;28;20539;-69
2023/08/29 06:47:56;;;;;;;485.10;460.40;;;15.30;99.90;;;;;;5049522;28;20535;-69
2023/08/29 06:50:23;;;;;;;453.37;430.37;;;15.40;99.90;;;;;;5049676;28;20540;-69
2023/08/29 06:52:50;;;;;;;367.83;350.63;;;15.40;99.90;;;;;;5049626;28;20462;-68
2023/08/29 06:55:18;;;;;;;409.93;390.03;;;15.40;99.90;;;;;;5049559;28;20538;-68
2023/08/29 06:57:45;;;;;;;388.60;370.00;;;15.60;99.90;;;;;;5049618;28;20514;-68
2023/08/29 07:00:13;;;;;;;386.67;367.80;;;15.70;99.90;;;;;;5049758;28;20538;-69
2023/08/29 07:02:40;;;;;;;360.57;343.73;;;15.90;99.90;;;;;;5049464;28;20470;-69
2023/08/29 07:05:07;;;;;;;325.70;309.60;;;16.20;99.90;;;;;;5050323;28;20585;-68
2023/08/29 07:07:36;;;;;;;261.53;249.70;;;16.30;99.90;;;;;;5053837;28;20443;-68
2023/08/29 07:10:04;;;;;;;221.67;212.13;;;16.40;99.90;;;;;;5053347;28;20448;-68
2023/08/29 07:12:32;;;;;;;242.63;232.13;;;16.50;99.90;;;;;;5053758;28;20853;-68
2023/08/29 07:15:00;;;;;;;166.43;158.33;;;16.60;99.90;;;;;;5052587;28;20499;-69
2023/08/29 07:17:27;;;;;;;144.13;137.60;;;16.70;99.90;;;;;;5053415;28;20490;-68
2023/08/29 07:19:54;;;;;;;159.67;152.63;;;16.70;99.90;;;;;;5052924;28;20443;-69
2023/08/29 07:22:21;;;;;;;131.67;125.50;;;16.90;99.90;;;;;;5053290;28;21003;-69
2023/08/29 07:24:48;;;;;;;129.73;123.27;;;16.90;99.90;;;;;;5052743;28;20447;-69
2023/08/29 07:27:14;;;;;;;78.27;73.53;;;17.10;99.90;;;;;;5053242;28;20539;-67
2023/08/29 07:29:43;;;;;;;59.77;55.43;;;17.10;99.90;;;;;;5052841;28;20480;-68
2023/08/29 07:32:09;;;;;;;53.03;48.57;;;17.20;99.90;;;;;;5052955;28;20458;-68
2023/08/29 07:34:39;;;;;;;54.20;49.83;;;17.30;99.90;;;;;;5052893;28;20454;-67
2023/08/29 07:37:06;;;;;;;41.27;37.37;;;17.40;99.90;;;;;;5052776;28;20525;-67
2023/08/29 07:39:34;;;;;;;33.90;30.30;;;17.50;99.90;;;;;;5052661;28;20493;-69
2023/08/29 07:42:02;;;;;;;38.07;32.93;;;17.60;99.90;;;;;;5052300;28;21053;-68
2023/08/29 07:47:00;;;;;;;32.30;28.90;;;17.90;99.90;;;;;;5032890;28;20480;-70
2023/08/29 07:49:27;;;;;;;32.77;29.50;;;17.90;99.90;;;;;;5036343;28;20463;-70
2023/08/29 07:51:55;;;;;;;48.17;43.57;;;18.10;99.90;;;;;;5034291;28;20988;-69
2023/08/29 07:54:22;;;;;;;35.60;31.75;;;18.20;99.90;;;;;;5034407;28;20802;-70
2023/08/29 07:56:50;;;;;;;29.20;24.90;;;18.40;99.90;;;;;;5035423;28;20233;-70
2023/08/29 07:59:17;;;;;;;30.83;25.97;;;18.30;99.90;;;;;;5035857;28;20543;-70
2023/08/29 08:01:44;;;;;;;26.70;23.40;;;18.40;99.90;;;;;;5035508;28;20535;-70
2023/08/29 08:04:12;;;;;;;23.40;20.70;;;18.70;99.90;;;;;;5034718;28;20552;-70
2023/08/29 08:06:40;;;;;;;28.67;22.53;;;18.50;99.90;;;;;;5034849;28;20528;-71
2023/08/29 08:09:07;;;;;;;26.33;22.20;;;18.90;99.90;;;;;;5036217;28;20448;-70
2023/08/29 08:11:36;;;;;;;24.40;18.87;;;18.80;99.90;;;;;;5035493;28;20448;-70
2023/08/29 08:14:03;;;;;;;28.30;19.13;;;18.90;99.90;;;;;;5034422;28;20456;-70
2023/08/29 08:16:30;;;;;;;27.23;20.47;;;19.10;99.90;;;;;;5034375;28;20531;-71
2023/08/29 08:18:56;;;;;;;29.37;19.87;;;19.50;99.90;;;;;;5035621;28;20481;-70
2023/08/29 08:21:25;;;;;;;23.70;19.30;;;19.70;99.90;;;;;;5035739;28;20539;-70
2023/08/29 08:23:52;;;;;;;25.53;19.07;;;19.80;99.90;;;;;;5034811;28;20544;-70
2023/08/29 08:26:19;;;;;;;36.03;22.03;;;20.10;99.90;;;;;;5034929;28;20906;-70
2023/08/29 08:28:46;;;;;;;26.17;19.23;;;20.40;99.90;;;;;;5035671;28;20445;-70
2023/08/29 08:31:13;;;;;;;30.33;20.93;;;20.60;99.90;;;;;;5036054;28;20484;-70
2023/08/29 08:33:40;;;;;;;23.33;17.97;;;20.60;99.90;;;;;;5034053;28;20453;-70
2023/08/29 08:36:07;;;;;;;23.23;17.33;;;21.10;98.30;;;;;;5034715;28;20463;-70
2023/08/29 08:38:35;;;;;;;25.77;20.53;;;20.70;97.60;;;;;;5035469;28;20484;-70
2023/08/29 08:41:04;;;;;;;22.60;17.43;;;21.00;98.70;;;;;;5035061;28;20547;-70
2023/08/29 08:43:32;;;;;;;25.10;17.73;;;21.50;95.70;;;;;;5034174;28;20455;-70
2023/08/29 08:45:59;;;;;;;22.33;16.53;;;21.90;95.90;;;;;;5033888;28;20453;-70
2023/08/29 08:48:26;;;;;;;23.07;17.77;;;22.00;92.50;;;;;;5035171;28;20867;-70
2023/08/29 08:50:53;;;;;;;29.90;18.83;;;21.50;90.60;;;;;;5035134;28;20448;-69
2023/08/29 08:53:21;;;;;;;26.13;17.77;;;21.50;87.40;;;;;;5033904;28;20453;-69
2023/08/29 08:55:50;;;;;;;22.67;15.87;;;22.00;92.50;;;;;;5033816;28;20453;-69
2023/08/29 08:58:18;;;;;;;26.43;17.87;;;21.70;92.30;;;;;;5034643;28;20519;-68
2023/08/29 09:00:46;;;;;;;24.70;18.53;;;22.10;88.00;;;;;;5034958;28;20455;-70
2023/08/29 09:03:13;;;;;;;19.67;14.47;;;22.70;85.70;;;;;;5033847;28;20452;-71
2023/08/29 09:05:42;;;;;;;19.70;13.90;;;22.60;88.20;;;;;;5033576;28;20916;-69
2023/08/29 09:08:09;;;;;;;21.97;16.87;;;22.30;82.00;;;;;;5034869;28;20480;-70
2023/08/29 09:10:40;;;;;;;24.93;15.30;;;22.60;87.50;;;;;;5034534;28;20452;-70
2023/08/29 09:13:16;;;;;;;20.43;13.53;;;22.40;80.30;;;;;;5033827;28;20543;-67
2023/08/29 09:15:43;;;;;;;16.13;11.20;;;22.60;72.50;;;;;;5033294;28;20451;-68
2023/08/29 09:18:13;;;;;;;16.43;10.43;;;22.90;72.80;;;;;;5034307;28;21082;-70
2023/08/29 09:20:44;;;;;;;15.13;12.00;;;22.60;72.50;;;;;;5035230;28;20538;-67
2023/08/29 09:23:21;;;;;;;15.43;9.83;;;22.60;72.50;;;;;;5033579;28;20452;-69
2023/08/29 09:25:55;;;;;;;13.30;8.67;;;22.50;72.40;;;;;;5033256;28;20448;-69
2023/08/29 09:28:27;;;;;;;13.10;9.60;;;22.30;72.20;;;;;;5034476;28;20450;-70
2023/08/29 09:30:54;;;;;;;14.00;10.23;;;22.70;72.60;;;;;;5034563;28;20844;-70
2023/08/29 09:33:22;;;;;;;12.30;7.57;;;23.10;72.90;;;;;;5033352;28;20448;-70
2023/08/29 09:35:50;;;;;;;10.67;7.63;;;23.10;64.70;;;;;;5033071;28;20936;-68
2023/08/29 09:38:19;;;;;;;9.33;7.00;;;22.90;64.50;;;;;;5034248;28;20907;-69
2023/08/29 09:40:46;;;;;;;10.30;5.87;;;23.60;65.10;;;;;;5034256;28;20460;-70
2023/08/29 09:43:16;;;;;;;11.57;6.90;;;23.80;51.10;;;;;;5033168;28;20459;-69
2023/08/29 09:45:49;;;;;;;16.13;6.97;;;23.80;49.50;;;;;;5032658;28;20461;-70
2023/08/29 09:48:16;;;;;;;11.83;6.73;;;23.90;48.00;;;;;;5034206;28;20451;-68
2023/08/29 09:50:45;;;;;;;12.30;6.40;;;24.00;48.10;;;;;;5033818;28;20511;-69
2023/08/29 09:53:15;;;;;;;11.13;6.63;;;24.10;48.20;;;;;;5032782;28;20460;-69
2023/08/29 09:55:46;;;;;;;9.97;6.53;;;24.10;45.00;;;;;;5032954;28;20477;-69
2023/08/29 09:58:14;;;;;;;9.97;5.70;;;23.80;47.90;;;;;;5033955;28;20464;-68
2023/08/29 10:00:42;;;;;;;13.47;8.60;;;22.90;47.10;;;;;;5034019;28;20540;-70
2023/08/29 10:03:11;;;;;;;10.53;7.10;;;22.80;48.90;;;;;;5033043;28;20484;-70
2023/08/29 10:05:44;;;;;;;10.07;6.10;;;22.20;55.30;;;;;;5032520;28;20527;-69
2023/08/29 10:08:18;;;;;;;10.73;5.63;;;21.80;55.00;;;;;;5033946;28;20433;-70
2023/08/29 10:10:45;;;;;;;8.40;4.70;;;21.90;55.00;;;;;;5033941;28;20859;-69
2023/08/29 10:13:13;;;;;;;8.10;5.03;;;22.20;55.20;;;;;;5032786;28;20488;-70
2023/08/29 10:15:42;;;;;;;8.43;5.60;;;22.50;50.40;;;;;;5032307;28;20536;-69
2023/08/29 10:18:12;;;;;;;12.70;7.50;;;23.10;47.30;;;;;;5033534;28;20475;-69
2023/08/29 10:20:43;;;;;;;9.70;6.40;;;23.40;47.60;;;;;;5033817;28;20437;-70
2023/08/29 10:23:11;;;;;;;11.53;6.83;;;23.80;47.90;;;;;;5032434;28;20486;-69
2023/08/29 10:25:39;;;;;;;10.87;6.80;;;23.70;47.80;;;;;;5032662;28;20806;-70
2023/08/29 10:28:09;;;;;;;7.27;4.83;;;23.20;47.30;;;;;;5033718;28;20874;-70
2023/08/29 10:30:39;;;;;;;8.43;5.40;;;22.70;46.90;;;;;;5033663;28;20448;-70
2023/08/29 10:33:07;;;;;;;9.13;5.40;;;22.50;52.20;;;;;;5032545;28;20543;-70
2023/08/29 10:35:35;;;;;;;8.13;4.70;;;22.80;47.00;;;;;;5032397;28;20535;-70
2023/08/29 10:38:12;;;;;;;9.03;4.80;;;23.20;47.30;;;;;;5034316;28;20480;-70
2023/08/29 10:40:39;;;;;;;7.80;4.13;;;23.70;45.10;;;;;;5035734;28;20437;-70
2023/08/29 10:43:17;;;;;;;6.60;3.70;;;23.80;38.90;;;;;;5036733;28;20794;-69
2023/08/29 10:45:50;;;;;;;8.90;5.97;;;24.00;29.90;;;;;;5036271;28;20462;-70
2023/08/29 10:48:19;;;;;;;15.03;8.93;;;23.60;38.70;;;;;;5037535;28;20433;-70
2023/08/29 10:50:49;;;;;;;14.47;9.40;;;23.50;47.70;;;;;;5037472;28;20551;-70
2023/08/29 10:53:20;;;;;;;11.23;9.43;;;23.40;46.30;;;;;;5035770;28;20475;-69
2023/08/29 10:56:01;;;;;;;11.63;8.87;;;23.40;38.50;;;;;;5035425;28;20455;-70
2023/08/29 10:58:34;;;;;;;11.10;6.43;;;23.30;47.50;;;;;;5037339;28;20464;-69
2023/08/29 11:01:02;;;;;;;9.43;5.20;;;23.10;43.90;;;;;;5037390;28;20453;-68
2023/08/29 11:03:45;;;;;;;11.90;5.40;;;23.00;38.10;;;;;;5035009;28;20518;-69
2023/08/29 11:06:17;;;;;;;8.93;4.60;;;22.70;37.80;;;;;;5035641;28;20502;-69
2023/08/29 11:08:45;;;;;;;7.93;4.70;;;22.60;37.70;;;;;;5037110;28;20476;-69
2023/08/29 11:11:19;;;;;;;9.37;3.67;;;22.50;46.70;;;;;;5036765;28;20531;-69
2023/08/29 11:13:58;;;;;;;20.87;11.80;;;22.30;42.00;;;;;;5035414;28;20452;-68
2023/08/29 11:16:26;;;;;;;21.73;16.00;;;21.70;54.80;;;;;;5035883;28;20535;-69
2023/08/29 11:19:04;;;;;;;23.10;15.23;;;21.10;62.20;;;;;;5036507;28;20484;-68
2023/08/29 11:21:33;;;;;;;19.60;15.33;;;21.00;65.50;;;;;;5036556;28;20433;-69
2023/08/29 11:24:00;;;;;;;20.47;15.00;;;20.90;70.90;;;;;;5035480;28;20456;-69
2023/08/29 11:26:28;;;;;;;20.60;15.03;;;20.80;70.90;;;;;;5035700;28;20459;-69
2023/08/29 11:28:55;;;;;;;15.63;11.83;;;20.90;71.00;;;;;;5036789;28;20806;-69
2023/08/29 11:31:22;;;;;;;17.63;12.40;;;21.00;71.00;;;;;;5036727;28;20490;-68
2023/08/29 11:33:50;;;;;;;11.93;8.83;;;20.90;62.70;;;;;;5034835;28;20448;-68
2023/08/29 11:36:17;;;;;;;12.80;8.87;;;21.00;61.30;;;;;;5035535;28;20449;-68
2023/08/29 11:38:46;;;;;;;10.80;7.50;;;21.30;60.50;;;;;;5036300;28;20995;-69
2023/08/29 11:41:16;;;;;;;9.80;6.97;;;21.60;54.90;;;;;;5036766;28;20452;-69
2023/08/29 11:43:43;;;;;;;10.30;5.60;;;22.30;55.30;;;;;;5035388;28;20862;-68
2023/08/29 11:46:10;;;;;;;10.67;6.70;;;22.30;45.50;;;;;;5035389;28;20456;-68
2023/08/29 11:48:37;;;;;;;8.73;4.87;;;22.30;46.50;;;;;;5036338;28;20480;-69
2023/08/29 11:51:06;;;;;;;8.83;4.50;;;22.20;40.30;;;;;;5035910;28;20456;-69
2023/08/29 11:53:34;;;;;;;8.40;4.30;;;22.90;47.10;;;;;;5034327;28;20463;-69
2023/08/29 11:56:03;;;;;;;8.73;3.90;;;23.20;38.30;;;;;;5035023;28;20459;-68
2023/08/29 11:58:32;;;;;;;6.27;3.10;;;23.30;38.40;;;;;;5036239;28;20476;-68
2023/08/29 12:01:01;;;;;;;7.00;3.53;;;23.60;38.60;;;;;;5036201;28;20444;-69
2023/08/29 12:03:28;;;;;;;7.00;3.30;;;23.60;38.00;;;;;;5035196;28;20455;-69
2023/08/29 12:05:59;;;;;;;8.27;4.33;;;23.40;31.00;;;;;;5034788;28;20531;-69
2023/08/29 12:08:40;;;;;;;11.23;5.80;;;23.00;38.10;;;;;;5035692;28;20531;-69
2023/08/29 12:11:13;;;;;;;9.63;5.63;;;22.70;37.80;;;;;;5036023;28;20860;-69
2023/08/29 12:13:42;;;;;;;7.60;4.40;;;22.30;39.70;;;;;;5034869;28;20510;-68
2023/08/29 12:16:16;;;;;;;8.67;3.40;;;22.00;41.90;;;;;;5034973;28;20539;-69
2023/08/29 12:18:43;;;;;;;7.17;4.10;;;21.40;45.70;;;;;;5035802;28;20491;-69
2023/08/29 12:21:15;;;;;;;8.87;4.10;;;21.00;45.30;;;;;;5035505;28;20544;-69
2023/08/29 12:23:43;;;;;;;6.50;3.60;;;20.70;53.90;;;;;;5034314;28;20463;-69
2023/08/29 12:26:12;;;;;;;8.30;4.20;;;20.30;55.80;;;;;;5034638;28;20456;-68